Time;durP1;ratioP1;P1;durP2;ratioP2;P2;SDS_P1;SDS_P2;PMS_P1;PMS_P2;Temp;Humidity;BMP_temperature;BMP_pressure;BME280_temperature;BME280_humidity;BME280_pressure;Samples;Min_cycle;Max_cycle;Signal;HPM_P1;HPM_P2
2021/07/06 00:02:50;;;;;;;11.68;7.80;;;25.70;53.70;;;;;;6178753;28;80620;-67
2021/07/06 00:05:51;;;;;;;11.55;7.63;;;25.70;53.70;;;;;;6171527;28;83417;-67
2021/07/06 00:08:51;;;;;;;10.70;7.47;;;25.70;53.70;;;;;;6176080;28;80799;-68
2021/07/06 00:11:51;;;;;;;10.23;7.65;;;25.70;53.50;;;;;;6182624;28;81010;-67
2021/07/06 00:14:52;;;;;;;11.95;7.78;;;25.80;53.60;;;;;;6180906;28;80939;-67
2021/07/06 00:17:53;;;;;;;9.20;6.60;;;25.80;53.70;;;;;;6177465;28;80810;-67
2021/07/06 00:20:53;;;;;;;9.52;6.43;;;25.80;53.80;;;;;;6175363;28;80699;-68
2021/07/06 00:23:54;;;;;;;9.63;6.75;;;25.80;53.50;;;;;;6178825;28;81060;-67
2021/07/06 00:26:54;;;;;;;8.65;6.55;;;25.80;53.60;;;;;;6175849;28;80837;-67
2021/07/06 00:29:55;;;;;;;9.23;7.10;;;25.80;53.30;;;;;;6179552;28;82849;-67
2021/07/06 00:32:56;;;;;;;9.40;6.90;;;25.70;53.50;;;;;;6179954;28;80411;-67
2021/07/06 00:36:01;;;;;;;9.13;6.70;;;25.70;53.60;;;;;;6177441;28;81417;-66
2021/07/06 00:39:02;;;;;;;8.23;6.33;;;25.80;53.30;;;;;;6179099;28;80569;-67
2021/07/06 00:42:02;;;;;;;10.98;6.50;;;25.70;53.30;;;;;;6178313;28;86154;-67
2021/07/06 00:45:03;;;;;;;10.68;7.07;;;25.70;53.30;;;;;;6182146;28;80648;-67
2021/07/06 00:48:03;;;;;;;12.40;7.07;;;25.70;53.20;;;;;;6180289;28;80494;-67
2021/07/06 00:51:04;;;;;;;11.80;6.28;;;25.70;53.40;;;;;;6180676;28;81108;-67
2021/07/06 00:54:04;;;;;;;7.57;6.72;;;25.70;53.20;;;;;;6181387;28;80561;-67
2021/07/06 00:57:07;;;;;;;7.80;5.90;;;25.70;53.30;;;;;;6177103;28;80795;-67
2021/07/06 01:00:08;;;;;;;9.18;7.28;;;25.70;53.40;;;;;;6179252;28;80528;-67
2021/07/06 01:03:10;;;;;;;9.30;6.82;;;25.70;53.10;;;;;;6180387;28;80753;-67
2021/07/06 01:06:10;;;;;;;8.27;6.18;;;25.70;53.30;;;;;;6181012;28;80794;-68
2021/07/06 01:09:11;;;;;;;8.13;6.63;;;25.70;53.30;;;;;;6180101;28;80952;-68
2021/07/06 01:12:11;;;;;;;10.52;7.03;;;25.70;53.20;;;;;;6172054;28;80341;-68
2021/07/06 01:15:12;;;;;;;10.35;7.07;;;25.70;53.30;;;;;;6180534;28;82248;-68
2021/07/06 01:18:12;;;;;;;6.88;5.90;;;25.70;53.50;;;;;;6169583;28;81790;-68
2021/07/06 01:21:13;;;;;;;9.00;6.63;;;25.70;53.20;;;;;;6176001;28;81510;-68
2021/07/06 01:24:13;;;;;;;7.70;6.00;;;25.70;53.00;;;;;;6178275;28;80251;-67
2021/07/06 01:27:14;;;;;;;9.05;6.03;;;25.80;53.10;;;;;;6181498;28;81967;-68
2021/07/06 01:30:14;;;;;;;9.85;6.07;;;25.80;53.00;;;;;;6172102;28;80390;-67
2021/07/06 01:33:15;;;;;;;9.50;6.45;;;25.80;53.00;;;;;;6177888;28;80406;-67
2021/07/06 01:36:18;;;;;;;10.60;7.07;;;25.80;53.20;;;;;;6175361;28;81928;-68
2021/07/06 01:39:18;;;;;;;7.78;6.00;;;25.80;53.30;;;;;;6177218;28;80386;-67
2021/07/06 01:42:19;;;;;;;9.82;6.45;;;25.70;53.30;;;;;;6180562;28;81006;-67
2021/07/06 01:45:19;;;;;;;8.95;6.80;;;25.80;53.70;;;;;;6159717;28;82066;-67
2021/07/06 01:48:20;;;;;;;8.10;6.28;;;25.70;53.30;;;;;;6189533;28;83872;-67
2021/07/06 01:51:21;;;;;;;10.27;7.28;;;25.70;53.20;;;;;;6181556;28;81060;-67
2021/07/06 01:54:21;;;;;;;11.18;7.15;;;25.70;53.20;;;;;;6178788;28;80716;-67
2021/07/06 01:57:24;;;;;;;13.32;7.43;;;25.70;53.30;;;;;;6183800;28;80584;-66
2021/07/06 02:00:25;;;;;;;12.60;7.72;;;25.70;53.40;;;;;;6182031;28;80420;-66
2021/07/06 02:03:25;;;;;;;11.32;8.15;;;25.70;53.20;;;;;;6181426;28;81371;-69
2021/07/06 02:06:26;;;;;;;10.63;7.70;;;25.70;53.10;;;;;;6184645;28;82436;-69
2021/07/06 02:09:26;;;;;;;12.82;7.90;;;25.70;53.30;;;;;;6181199;28;81251;-69
2021/07/06 02:12:27;;;;;;;17.38;8.77;;;25.60;53.30;;;;;;6178797;28;80257;-67
2021/07/06 02:15:27;;;;;;;15.88;8.88;;;25.70;53.40;;;;;;6183576;28;80380;-67
2021/07/06 02:18:28;;;;;;;12.55;8.70;;;25.70;53.80;;;;;;6176263;28;80698;-67
2021/07/06 02:21:28;;;;;;;13.88;9.27;;;25.70;53.50;;;;;;6177901;28;80667;-67
2021/07/06 02:24:29;;;;;;;12.90;8.50;;;25.70;53.60;;;;;;6181713;28;83413;-68
2021/07/06 02:27:29;;;;;;;11.82;7.57;;;25.60;53.50;;;;;;6175508;28;81543;-67
2021/07/06 02:30:30;;;;;;;11.65;8.23;;;25.70;53.60;;;;;;6179142;28;80357;-67
2021/07/06 02:33:35;;;;;;;14.68;8.45;;;25.70;53.80;;;;;;6182718;28;80528;-67
2021/07/06 02:36:35;;;;;;;14.23;9.40;;;25.70;53.60;;;;;;6182930;28;81794;-67
2021/07/06 02:39:36;;;;;;;12.90;8.63;;;25.70;53.80;;;;;;6182781;28;81076;-67
2021/07/06 02:42:36;;;;;;;14.48;8.57;;;25.70;53.70;;;;;;6190648;28;83421;-67
2021/07/06 02:45:37;;;;;;;13.18;8.45;;;25.60;53.60;;;;;;6181228;28;80474;-67
2021/07/06 02:48:38;;;;;;;15.10;9.63;;;25.60;53.80;;;;;;6169446;28;80912;-67
2021/07/06 02:51:39;;;;;;;15.77;10.02;;;25.60;54.20;;;;;;6183648;28;80474;-67
2021/07/06 02:54:39;;;;;;;15.68;10.40;;;25.60;54.20;;;;;;6178248;28;83461;-67
2021/07/06 02:57:40;;;;;;;17.80;10.15;;;25.60;54.50;;;;;;6175869;28;82817;-67
2021/07/06 03:00:40;;;;;;;13.80;8.77;;;25.50;54.50;;;;;;6176477;28;83350;-67
2021/07/06 03:03:41;;;;;;;12.98;9.00;;;25.50;54.60;;;;;;6183232;28;83417;-67
2021/07/06 03:06:41;;;;;;;12.50;8.70;;;25.50;54.50;;;;;;6184747;28;81612;-67
2021/07/06 03:09:42;;;;;;;18.48;9.50;;;25.40;54.90;;;;;;6173534;28;80357;-67
2021/07/06 03:12:42;;;;;;;15.40;8.52;;;25.40;54.80;;;;;;6174171;28;80558;-67
2021/07/06 03:15:43;;;;;;;10.35;7.25;;;25.40;54.70;;;;;;6176501;28;80252;-67
2021/07/06 03:18:43;;;;;;;12.88;8.68;;;25.40;54.70;;;;;;6177884;28;80813;-67
2021/07/06 03:21:44;;;;;;;11.68;7.85;;;25.40;54.70;;;;;;6174367;28;80443;-68
2021/07/06 03:24:44;;;;;;;11.05;7.68;;;25.30;54.90;;;;;;6178602;28;80419;-68
2021/07/06 03:27:45;;;;;;;12.65;8.15;;;25.30;54.90;;;;;;6171544;28;80761;-69
2021/07/06 03:30:45;;;;;;;11.77;8.38;;;25.30;55.00;;;;;;6173729;28;80918;-69
2021/07/06 03:33:46;;;;;;;10.20;7.68;;;25.20;54.90;;;;;;6178700;28;81675;-68
2021/07/06 03:36:46;;;;;;;13.07;8.00;;;25.20;55.10;;;;;;6173909;28;81118;-69
2021/07/06 03:39:47;;;;;;;11.35;8.23;;;25.20;55.20;;;;;;6170353;28;81247;-68
2021/07/06 03:42:48;;;;;;;13.43;8.32;;;25.20;55.10;;;;;;6182077;28;80671;-68
2021/07/06 03:45:48;;;;;;;12.50;7.47;;;25.10;55.20;;;;;;6173228;28;80285;-69
2021/07/06 03:48:49;;;;;;;10.90;7.78;;;25.20;55.50;;;;;;6181519;28;80737;-69
2021/07/06 03:51:49;;;;;;;11.93;7.30;;;25.10;55.10;;;;;;6178777;28;81565;-69
2021/07/06 03:54:50;;;;;;;12.32;8.15;;;25.10;55.30;;;;;;6173132;28;80445;-69
2021/07/06 03:57:50;;;;;;;10.23;7.60;;;25.20;55.30;;;;;;6171124;28;81626;-68
2021/07/06 04:00:51;;;;;;;12.45;8.80;;;25.20;55.60;;;;;;6173981;28;80978;-69
2021/07/06 04:03:51;;;;;;;16.38;7.82;;;25.20;55.50;;;;;;6172174;28;80208;-69
2021/07/06 04:06:52;;;;;;;10.90;7.90;;;25.20;55.50;;;;;;6168990;28;80502;-69
2021/07/06 04:09:52;;;;;;;12.38;7.97;;;25.20;55.60;;;;;;6169870;28;81420;-70
2021/07/06 04:12:53;;;;;;;9.70;7.15;;;25.20;55.70;;;;;;6177897;28;80853;-70
2021/07/06 04:15:53;;;;;;;8.98;7.03;;;25.20;55.60;;;;;;6179961;28;81082;-69
2021/07/06 04:18:54;;;;;;;15.98;9.95;;;25.30;55.40;;;;;;6170630;28;81306;-67
2021/07/06 04:21:54;;;;;;;13.65;9.05;;;25.30;55.60;;;;;;6178319;28;81491;-65
2021/07/06 04:24:55;;;;;;;10.68;8.15;;;25.30;55.50;;;;;;6175630;28;80033;-67
2021/07/06 04:27:55;;;;;;;10.70;7.60;;;25.40;55.50;;;;;;6168324;28;80419;-68
2021/07/06 04:30:56;;;;;;;12.00;8.13;;;25.40;55.30;;;;;;6171183;28;80616;-69
2021/07/06 04:33:56;;;;;;;11.73;7.47;;;25.40;55.30;;;;;;6176239;28;80679;-68
2021/07/06 04:36:57;;;;;;;13.32;7.45;;;25.50;55.30;;;;;;6180158;28;80272;-67
2021/07/06 04:39:57;;;;;;;14.38;7.68;;;25.60;54.90;;;;;;6178838;28;81062;-66
2021/07/06 04:42:59;;;;;;;10.73;7.40;;;25.60;55.10;;;;;;6182082;28;80426;-67
2021/07/06 04:45:59;;;;;;;9.60;6.68;;;25.60;54.60;;;;;;6191800;28;83414;-65
2021/07/06 04:49:00;;;;;;;11.10;8.07;;;25.60;54.50;;;;;;6181697;28;80671;-67
2021/07/06 04:52:00;;;;;;;10.88;7.43;;;25.60;56.90;;;;;;6173483;28;80247;-68
2021/07/06 04:55:01;;;;;;;12.98;7.70;;;25.70;57.20;;;;;;6172104;28;80388;-67
2021/07/06 04:58:01;;;;;;;12.68;7.63;;;25.70;58.40;;;;;;6174593;28;80638;-68
2021/07/06 05:01:02;;;;;;;11.95;8.65;;;25.70;59.70;;;;;;6180872;28;81753;-67
2021/07/06 05:04:02;;;;;;;13.35;8.63;;;25.70;59.70;;;;;;6171433;28;80771;-67
2021/07/06 05:07:03;;;;;;;12.98;8.48;;;25.70;61.10;;;;;;6191073;28;80457;-66
2021/07/06 05:10:03;;;;;;;10.80;7.78;;;25.80;59.30;;;;;;6173666;28;80259;-66
2021/07/06 05:13:04;;;;;;;10.68;6.82;;;25.80;58.60;;;;;;6174468;28;81459;-69
2021/07/06 05:16:04;;;;;;;8.60;6.50;;;25.80;59.70;;;;;;6166990;28;81019;-66
2021/07/06 05:19:05;;;;;;;9.43;6.35;;;25.80;58.90;;;;;;6167487;28;80831;-66
2021/07/06 05:22:05;;;;;;;11.73;7.00;;;25.80;59.00;;;;;;6167843;28;80484;-67
2021/07/06 05:25:06;;;;;;;8.55;6.38;;;25.90;58.50;;;;;;6174295;28;80343;-67
2021/07/06 05:28:07;;;;;;;9.02;6.50;;;25.80;58.50;;;;;;6170883;28;82896;-66
2021/07/06 05:31:07;;;;;;;11.27;7.15;;;25.90;58.20;;;;;;6174346;28;85752;-66
2021/07/06 05:34:08;;;;;;;16.27;7.53;;;25.90;58.10;;;;;;6181906;28;81493;-68
2021/07/06 05:37:08;;;;;;;12.35;7.10;;;25.90;58.20;;;;;;6179003;28;81745;-66
2021/07/06 05:40:10;;;;;;;8.57;6.68;;;25.90;58.10;;;;;;6179162;28;80026;-66
2021/07/06 05:43:10;;;;;;;11.13;6.93;;;25.90;57.60;;;;;;6180404;28;80837;-67
2021/07/06 05:46:11;;;;;;;11.23;6.05;;;25.90;57.50;;;;;;6190106;28;83244;-67
2021/07/06 05:49:11;;;;;;;13.55;6.97;;;26.00;57.30;;;;;;6180510;28;82214;-68
2021/07/06 05:52:11;;;;;;;8.40;6.75;;;25.90;57.30;;;;;;6176703;28;80696;-68
2021/07/06 05:55:12;;;;;;;9.40;6.60;;;25.90;57.20;;;;;;6178756;28;80656;-66
2021/07/06 05:58:13;;;;;;;10.38;7.03;;;26.00;57.30;;;;;;6178241;28;80817;-70
2021/07/06 06:01:13;;;;;;;10.80;7.50;;;25.90;57.10;;;;;;6179140;28;80348;-72
2021/07/06 06:04:15;;;;;;;10.60;7.20;;;25.90;57.10;;;;;;6169120;28;80496;-69
2021/07/06 06:07:16;;;;;;;10.52;7.75;;;25.90;57.10;;;;;;6181624;28;80359;-77
2021/07/06 06:10:16;;;;;;;10.88;7.28;;;26.00;56.70;;;;;;6179224;28;80952;-69
2021/07/06 06:13:17;;;;;;;12.75;7.85;;;26.00;57.00;;;;;;6177712;28;81986;-68
2021/07/06 06:16:17;;;;;;;13.80;7.00;;;26.00;56.60;;;;;;6172616;28;80912;-67
2021/07/06 06:19:18;;;;;;;9.18;7.15;;;26.00;55.80;;;;;;6163357;28;80858;-68
2021/07/06 06:22:19;;;;;;;12.88;7.00;;;26.00;55.90;;;;;;6169898;28;81515;-69
2021/07/06 06:25:19;;;;;;;14.60;6.80;;;26.00;55.90;;;;;;6180609;28;81670;-70
2021/07/06 06:28:20;;;;;;;12.07;6.75;;;26.10;56.00;;;;;;6178513;28;80526;-68
2021/07/06 06:31:20;;;;;;;10.05;7.00;;;26.10;55.70;;;;;;6170960;28;80711;-67
2021/07/06 06:34:21;;;;;;;13.38;7.50;;;26.00;55.70;;;;;;6180525;28;80451;-67
2021/07/06 06:37:21;;;;;;;129.07;46.22;;;26.00;55.60;;;;;;6182325;28;81009;-68
2021/07/06 06:40:22;;;;;;;112.53;39.28;;;26.00;55.50;;;;;;6171958;28;85517;-68
2021/07/06 06:43:22;;;;;;;122.72;41.35;;;26.00;55.80;;;;;;6169289;28;84052;-66
2021/07/06 06:46:23;;;;;;;319.55;114.43;;;26.00;55.20;;;;;;6173592;28;83786;-66
2021/07/06 06:49:24;;;;;;;371.25;133.95;;;26.00;55.10;;;;;;6168306;28;85562;-66
2021/07/06 06:52:24;;;;;;;399.25;141.05;;;26.00;55.30;;;;;;6168829;28;85887;-67
2021/07/06 06:55:25;;;;;;;318.63;113.57;;;26.00;55.80;;;;;;6174050;28;86357;-66
2021/07/06 06:58:25;;;;;;;267.60;94.88;;;26.10;55.60;;;;;;6166413;28;85503;-67
2021/07/06 07:01:27;;;;;;;252.00;87.00;;;26.00;55.40;;;;;;6173382;28;87111;-67
2021/07/06 07:04:28;;;;;;;219.50;83.03;;;26.10;55.60;;;;;;6167976;28;84581;-67
2021/07/06 07:07:30;;;;;;;192.32;68.38;;;26.10;55.30;;;;;;6179571;28;84014;-65
2021/07/06 07:10:30;;;;;;;135.73;51.10;;;26.10;55.40;;;;;;6171255;28;84366;-65
2021/07/06 07:13:31;;;;;;;136.23;50.58;;;26.10;55.40;;;;;;6171983;28;83596;-67
2021/07/06 07:16:31;;;;;;;115.25;43.58;;;26.10;55.50;;;;;;6175810;28;84638;-67
2021/07/06 07:19:32;;;;;;;113.03;42.33;;;26.10;55.30;;;;;;6173775;28;83454;-67
2021/07/06 07:22:32;;;;;;;97.13;37.70;;;26.10;55.80;;;;;;6178682;28;85116;-66
2021/07/06 07:25:33;;;;;;;71.53;27.85;;;26.10;56.00;;;;;;6181161;28;84283;-66
2021/07/06 07:28:34;;;;;;;49.70;21.98;;;26.10;55.70;;;;;;6187019;28;82951;-65
2021/07/06 07:31:35;;;;;;;39.40;18.10;;;26.10;55.10;;;;;;6179119;28;83049;-67
2021/07/06 07:34:35;;;;;;;35.00;16.10;;;26.10;54.40;;;;;;6175648;28;82882;-65
2021/07/06 07:37:36;;;;;;;32.45;15.77;;;26.10;54.50;;;;;;6176092;28;84103;-66
2021/07/06 07:40:36;;;;;;;40.30;13.55;;;26.10;54.50;;;;;;6176369;28;83090;-65
2021/07/06 07:43:37;;;;;;;15.32;10.15;;;26.10;54.60;;;;;;6180697;28;83496;-66
2021/07/06 07:46:37;;;;;;;18.50;9.70;;;26.10;53.40;;;;;;6183514;28;84849;-66
2021/07/06 07:49:38;;;;;;;12.48;7.90;;;26.10;53.00;;;;;;6182753;28;82925;-66
2021/07/06 07:52:38;;;;;;;11.88;7.57;;;26.10;53.30;;;;;;6178928;28;81766;-66
2021/07/06 07:55:39;;;;;;;8.77;6.70;;;26.10;53.30;;;;;;6168653;28;83351;-67
2021/07/06 07:58:39;;;;;;;10.32;7.00;;;26.10;53.10;;;;;;6172648;28;80854;-66
2021/07/06 08:01:40;;;;;;;12.60;7.88;;;26.00;53.50;;;;;;6181838;28;80302;-66
2021/07/06 08:04:40;;;;;;;12.95;8.13;;;26.10;53.90;;;;;;6185703;28;80645;-65
2021/07/06 08:07:41;;;;;;;13.48;7.80;;;26.10;53.80;;;;;;6174010;28;80464;-66
2021/07/06 08:10:41;;;;;;;10.02;7.18;;;26.10;54.30;;;;;;6175577;28;80636;-65
2021/07/06 08:13:42;;;;;;;13.00;7.55;;;26.10;54.00;;;;;;6180542;28;80406;-66
2021/07/06 08:16:42;;;;;;;10.82;7.10;;;26.20;54.00;;;;;;6184997;28;80412;-66
2021/07/06 08:19:43;;;;;;;11.75;7.47;;;26.20;54.00;;;;;;6175655;28;80360;-65
2021/07/06 08:22:44;;;;;;;9.25;6.53;;;26.20;54.10;;;;;;6179960;28;81909;-66
2021/07/06 08:25:45;;;;;;;10.15;6.40;;;26.10;54.00;;;;;;6171520;28;81064;-65
2021/07/06 08:28:45;;;;;;;8.30;6.28;;;26.20;54.20;;;;;;6179652;28;80618;-64
2021/07/06 08:31:46;;;;;;;9.68;6.85;;;26.30;54.10;;;;;;6175006;28;80402;-64
2021/07/06 08:34:46;;;;;;;12.07;7.47;;;26.30;54.00;;;;;;6174655;28;81450;-65
2021/07/06 08:37:47;;;;;;;9.70;6.85;;;26.30;54.00;;;;;;6177744;28;80283;-66
2021/07/06 08:40:51;;;;;;;15.23;7.22;;;26.30;54.00;;;;;;6177728;28;81002;-64
2021/07/06 08:43:51;;;;;;;8.70;6.95;;;26.30;53.90;;;;;;6181120;28;80425;-65
2021/07/06 08:46:52;;;;;;;9.18;6.78;;;26.30;53.80;;;;;;6181898;28;80533;-64
2021/07/06 08:49:52;;;;;;;10.23;7.50;;;26.40;53.80;;;;;;6175204;28;81626;-65
2021/07/06 08:52:53;;;;;;;9.48;7.32;;;26.40;54.00;;;;;;6171493;28;80831;-64
2021/07/06 08:55:53;;;;;;;14.02;6.70;;;26.40;53.90;;;;;;6177511;28;82066;-66
2021/07/06 08:58:54;;;;;;;11.60;7.63;;;26.40;53.60;;;;;;6176482;28;82737;-66
2021/07/06 09:01:55;;;;;;;12.10;6.50;;;26.40;53.20;;;;;;6180750;28;81259;-66
2021/07/06 09:04:55;;;;;;;8.88;7.07;;;26.40;53.00;;;;;;6181048;28;80564;-66
2021/07/06 09:07:56;;;;;;;9.15;6.63;;;26.40;53.10;;;;;;6179155;28;80267;-67
2021/07/06 09:10:56;;;;;;;8.73;6.35;;;26.40;52.90;;;;;;6169063;28;81842;-67
2021/07/06 09:13:57;;;;;;;11.10;7.82;;;26.50;52.80;;;;;;6164724;28;80937;-65
2021/07/06 09:16:57;;;;;;;11.73;7.40;;;26.50;52.90;;;;;;6171107;28;80710;-67
2021/07/06 09:19:58;;;;;;;9.57;6.88;;;26.50;52.60;;;;;;6178162;28;81111;-65
2021/07/06 09:22:58;;;;;;;8.52;6.68;;;26.50;52.90;;;;;;6170146;28;80634;-65
2021/07/06 09:25:59;;;;;;;12.35;8.38;;;26.50;52.70;;;;;;6173785;28;80652;-65
2021/07/06 09:28:59;;;;;;;20.27;11.32;;;26.50;53.80;;;;;;6179528;28;80402;-65
2021/07/06 09:32:00;;;;;;;25.20;9.75;;;26.50;57.70;;;;;;6171581;28;83146;-65
2021/07/06 09:35:00;;;;;;;13.95;8.88;;;26.50;56.40;;;;;;6176503;28;84380;-66
2021/07/06 09:38:01;;;;;;;16.88;8.77;;;26.50;55.00;;;;;;6172023;28;81424;-65
2021/07/06 09:41:01;;;;;;;17.73;7.53;;;26.50;55.40;;;;;;6176528;28;80715;-64
2021/07/06 09:44:02;;;;;;;12.43;8.40;;;26.60;55.00;;;;;;6165489;28;81081;-64
2021/07/06 09:47:02;;;;;;;12.93;8.45;;;26.70;54.40;;;;;;6168918;28;83019;-65
2021/07/06 09:50:03;;;;;;;11.38;8.18;;;26.70;54.70;;;;;;6173882;28;80416;-64
2021/07/06 09:53:03;;;;;;;11.40;7.88;;;26.70;54.70;;;;;;6179539;28;80370;-64
2021/07/06 09:56:04;;;;;;;11.00;7.63;;;26.60;54.90;;;;;;6178332;28;81747;-64
2021/07/06 09:59:05;;;;;;;9.88;7.65;;;26.60;54.40;;;;;;6183027;28;80999;-67
2021/07/06 10:02:08;;;;;;;16.40;7.25;;;26.60;54.50;;;;;;6185409;28;80478;-66
2021/07/06 10:05:13;;;;;;;9.93;6.60;;;26.60;54.50;;;;;;6177279;28;80358;-65
2021/07/06 10:08:14;;;;;;;15.32;7.88;;;26.60;54.70;;;;;;6174980;28;81442;-65
2021/07/06 10:11:14;;;;;;;10.93;7.57;;;26.60;54.30;;;;;;6172475;28;81504;-65
2021/07/06 10:14:15;;;;;;;11.48;7.60;;;26.60;54.20;;;;;;6189306;28;80346;-65
2021/07/06 10:17:15;;;;;;;9.38;7.13;;;26.70;53.60;;;;;;6176734;28;81186;-66
2021/07/06 10:20:20;;;;;;;9.60;7.05;;;26.80;51.60;;;;;;6187040;28;81560;-66
2021/07/06 10:23:20;;;;;;;11.52;6.88;;;26.80;52.10;;;;;;6182505;28;81781;-66
2021/07/06 10:26:21;;;;;;;9.65;6.80;;;26.80;51.60;;;;;;6165992;28;81102;-66
2021/07/06 10:29:21;;;;;;;9.55;6.85;;;26.80;51.50;;;;;;6183154;28;80613;-66
2021/07/06 10:32:22;;;;;;;11.07;6.68;;;26.90;50.80;;;;;;6186957;28;80504;-66
2021/07/06 10:35:22;;;;;;;8.18;6.22;;;26.90;51.50;;;;;;6181180;28;80775;-66
2021/07/06 10:38:23;;;;;;;9.35;6.60;;;26.90;51.50;;;;;;6180780;28;80587;-66
2021/07/06 10:41:23;;;;;;;9.20;6.43;;;26.90;51.60;;;;;;6181597;28;80843;-65
2021/07/06 10:44:24;;;;;;;7.60;6.80;;;26.80;51.80;;;;;;6174142;28;80830;-66
2021/07/06 10:47:24;;;;;;;10.57;6.60;;;26.90;51.40;;;;;;6181989;28;83151;-65
2021/07/06 10:50:25;;;;;;;8.20;6.30;;;26.90;51.80;;;;;;6179028;28;80420;-66
2021/07/06 10:53:26;;;;;;;11.10;6.30;;;26.90;50.70;;;;;;6182365;28;80493;-67
2021/07/06 10:56:26;;;;;;;9.60;6.30;;;27.00;50.50;;;;;;6182273;28;80524;-67
2021/07/06 10:59:27;;;;;;;7.55;5.85;;;26.90;51.00;;;;;;6170714;28;80720;-69
2021/07/06 11:02:27;;;;;;;9.10;6.63;;;26.90;51.50;;;;;;6182573;28;80443;-68
2021/07/06 11:05:28;;;;;;;9.32;7.05;;;27.00;51.50;;;;;;6173384;28;81590;-69
2021/07/06 11:08:28;;;;;;;9.32;6.10;;;27.00;51.30;;;;;;6185487;28;81895;-68
2021/07/06 11:11:29;;;;;;;10.27;7.03;;;27.00;51.30;;;;;;6173834;28;81586;-67
2021/07/06 11:14:29;;;;;;;9.48;6.22;;;27.00;51.90;;;;;;6173314;28;81224;-67
2021/07/06 11:17:30;;;;;;;6.72;6.03;;;27.00;50.30;;;;;;6181271;28;81326;-66
2021/07/06 11:20:30;;;;;;;6.85;6.13;;;27.10;49.50;;;;;;6174790;28;80666;-67
2021/07/06 11:23:31;;;;;;;6.50;5.90;;;27.10;49.00;;;;;;6178190;28;80492;-66
2021/07/06 11:26:31;;;;;;;9.70;6.25;;;27.20;48.60;;;;;;6189981;28;80621;-67
2021/07/06 11:29:32;;;;;;;10.02;5.95;;;27.30;47.70;;;;;;6179773;28;81255;-68
2021/07/06 11:32:32;;;;;;;9.15;5.90;;;27.30;47.40;;;;;;6186284;28;86859;-68
2021/07/06 11:35:33;;;;;;;8.00;5.70;;;27.40;47.30;;;;;;6175935;28;80691;-67
2021/07/06 11:38:33;;;;;;;8.35;5.90;;;27.40;46.70;;;;;;6182981;28;81874;-66
2021/07/06 11:41:34;;;;;;;8.20;5.88;;;27.50;47.20;;;;;;6179551;28;83598;-67
2021/07/06 11:44:34;;;;;;;10.73;5.90;;;27.60;47.90;;;;;;6178110;28;81700;-67
2021/07/06 11:47:35;;;;;;;6.47;5.45;;;27.60;47.00;;;;;;6178735;28;81467;-66
2021/07/06 11:50:35;;;;;;;6.50;5.80;;;27.70;47.10;;;;;;6171727;28;81795;-67
2021/07/06 11:53:37;;;;;;;8.05;6.10;;;27.80;46.80;;;;;;6182411;28;82587;-68
2021/07/06 11:56:38;;;;;;;7.65;5.57;;;27.70;47.10;;;;;;6181432;28;81237;-67
2021/07/06 11:59:38;;;;;;;8.80;5.53;;;27.70;47.40;;;;;;6183316;28;80635;-67
2021/07/06 12:02:39;;;;;;;8.23;5.60;;;27.70;48.10;;;;;;6179514;28;80475;-67
2021/07/06 12:05:39;;;;;;;7.93;5.75;;;27.70;47.30;;;;;;6179327;28;80655;-68
2021/07/06 12:08:40;;;;;;;8.10;5.75;;;27.80;47.80;;;;;;6175859;28;81424;-69
2021/07/06 12:11:40;;;;;;;7.10;5.65;;;27.80;46.60;;;;;;6173234;28;81495;-68
2021/07/06 12:14:44;;;;;;;6.13;5.53;;;27.80;46.00;;;;;;6175298;28;81646;-67
2021/07/06 12:17:44;;;;;;;6.57;5.80;;;27.80;46.10;;;;;;6177146;28;80477;-67
2021/07/06 12:20:45;;;;;;;6.70;5.00;;;27.80;46.90;;;;;;6174190;28;80328;-67
2021/07/06 12:23:45;;;;;;;6.75;5.38;;;27.70;47.50;;;;;;6169837;28;80710;-69
2021/07/06 12:26:46;;;;;;;5.45;4.93;;;27.60;48.00;;;;;;6179704;28;80716;-68
2021/07/06 12:29:46;;;;;;;7.50;5.90;;;27.60;47.60;;;;;;6176125;28;83727;-67
2021/07/06 12:32:47;;;;;;;7.50;5.88;;;27.70;46.60;;;;;;6171855;28;81393;-68
2021/07/06 12:35:47;;;;;;;6.80;6.10;;;27.80;47.30;;;;;;6180863;28;88812;-68
2021/07/06 12:38:48;;;;;;;6.32;5.03;;;27.70;47.50;;;;;;6177517;28;80607;-69
2021/07/06 12:41:48;;;;;;;7.15;5.80;;;27.60;48.10;;;;;;6180878;28;82010;-67
2021/07/06 12:44:49;;;;;;;13.60;6.40;;;27.50;48.80;;;;;;6172514;28;80085;-67
2021/07/06 12:47:49;;;;;;;11.00;6.78;;;27.50;49.50;;;;;;6180666;28;81676;-67
2021/07/06 12:50:51;;;;;;;7.40;6.20;;;27.50;49.80;;;;;;6174258;28;81022;-67
2021/07/06 12:53:52;;;;;;;10.02;6.72;;;27.60;49.70;;;;;;6178248;28;80522;-66
2021/07/06 12:56:52;;;;;;;13.35;6.95;;;27.50;49.80;;;;;;6178095;28;80739;-67
2021/07/06 12:59:53;;;;;;;12.48;6.80;;;27.50;50.70;;;;;;6184794;28;80569;-66
2021/07/06 13:02:53;;;;;;;8.55;6.63;;;27.50;50.40;;;;;;6178201;28;81429;-70
2021/07/06 13:05:54;;;;;;;9.27;6.70;;;27.50;50.80;;;;;;6172837;28;80905;-68
2021/07/06 13:08:54;;;;;;;7.38;6.57;;;27.60;49.40;;;;;;6172326;28;82456;-67
2021/07/06 13:11:55;;;;;;;12.65;6.90;;;27.70;49.20;;;;;;6180929;28;80552;-68
2021/07/06 13:14:55;;;;;;;13.10;7.90;;;27.60;49.70;;;;;;6180449;28;80554;-68
2021/07/06 13:17:56;;;;;;;16.33;7.00;;;27.50;50.40;;;;;;6175702;28;81325;-67
2021/07/06 13:20:56;;;;;;;10.35;6.40;;;27.50;50.50;;;;;;6179177;28;81440;-66
2021/07/06 13:23:59;;;;;;;8.48;6.10;;;27.40;50.40;;;;;;6173987;28;81071;-67
2021/07/06 13:26:59;;;;;;;11.90;7.63;;;27.40;50.70;;;;;;6176170;28;81413;-68
2021/07/06 13:30:00;;;;;;;7.35;6.55;;;27.40;50.70;;;;;;6177811;28;80258;-67
2021/07/06 13:33:00;;;;;;;9.63;6.20;;;27.30;50.70;;;;;;6173606;28;80870;-67
2021/07/06 13:36:01;;;;;;;9.73;6.30;;;27.30;50.80;;;;;;6182146;28;80603;-69
2021/07/06 13:39:02;;;;;;;8.50;6.28;;;27.30;51.20;;;;;;6177346;28;81081;-68
2021/07/06 13:42:02;;;;;;;9.05;6.50;;;27.30;51.70;;;;;;6182753;28;80330;-67
2021/07/06 13:45:03;;;;;;;9.63;6.60;;;27.30;51.50;;;;;;6183438;28;84892;-67
2021/07/06 13:48:03;;;;;;;8.73;6.97;;;27.30;51.70;;;;;;6185470;28;80558;-67
2021/07/06 13:51:04;;;;;;;7.78;6.40;;;27.30;51.80;;;;;;6181691;28;80690;-68
2021/07/06 13:54:06;;;;;;;7.78;6.30;;;27.20;51.90;;;;;;6177613;28;81808;-67
2021/07/06 13:57:12;;;;;;;8.60;6.28;;;27.20;52.10;;;;;;6182829;28;80398;-67
2021/07/06 14:00:13;;;;;;;9.18;6.75;;;27.20;52.30;;;;;;6183417;28;80826;-67
2021/07/06 14:03:16;;;;;;;7.05;6.15;;;27.20;52.50;;;;;;6184731;28;80128;-67
2021/07/06 14:06:17;;;;;;;8.40;6.95;;;27.20;52.40;;;;;;6181937;28;82419;-70
2021/07/06 14:09:17;;;;;;;12.00;7.45;;;27.30;51.20;;;;;;6172255;28;80618;-68
2021/07/06 14:12:18;;;;;;;8.35;6.85;;;27.40;52.50;;;;;;6170923;28;81329;-68
2021/07/06 14:15:18;;;;;;;8.85;6.50;;;27.40;51.90;;;;;;6169548;28;80692;-69
2021/07/06 14:18:19;;;;;;;7.63;6.57;;;27.40;52.20;;;;;;6168505;28;80532;-70
2021/07/06 14:21:19;;;;;;;147.88;46.22;;;27.40;52.10;;;;;;6175037;28;80762;-71
2021/07/06 14:24:20;;;;;;;135.73;44.60;;;27.30;52.10;;;;;;6195639;28;83148;-69
2021/07/06 14:27:20;;;;;;;265.35;80.93;;;27.40;51.40;;;;;;6179120;28;83679;-68
2021/07/06 14:30:21;;;;;;;341.42;104.90;;;27.50;50.50;;;;;;6173582;28;84420;-70
2021/07/06 14:33:22;;;;;;;214.15;67.75;;;27.50;50.50;;;;;;6176444;28;85648;-68
2021/07/06 14:36:22;;;;;;;262.10;75.43;;;27.60;50.30;;;;;;6181186;28;86882;-68
2021/07/06 14:39:23;;;;;;;143.55;47.70;;;27.60;50.60;;;;;;6181023;28;84444;-68
2021/07/06 14:42:23;;;;;;;101.80;37.67;;;27.50;51.20;;;;;;6167336;28;83192;-68
2021/07/06 14:45:24;;;;;;;103.22;35.38;;;27.50;50.70;;;;;;6177421;28;83185;-68
2021/07/06 14:48:24;;;;;;;133.70;44.45;;;27.60;50.40;;;;;;6175671;28;83421;-70
2021/07/06 14:51:26;;;;;;;139.65;43.85;;;27.50;50.80;;;;;;6178871;28;83671;-68
2021/07/06 14:54:27;;;;;;;112.90;39.83;;;27.50;51.30;;;;;;6177230;28;82969;-68
2021/07/06 14:57:27;;;;;;;118.05;38.97;;;27.40;51.60;;;;;;6173698;28;83517;-70
2021/07/06 15:00:28;;;;;;;116.30;39.38;;;27.40;51.50;;;;;;6175226;28;83148;-67
2021/07/06 15:03:28;;;;;;;106.55;37.92;;;27.40;51.70;;;;;;6183949;28;83225;-67
2021/07/06 15:06:29;;;;;;;88.45;31.35;;;27.30;51.70;;;;;;6173960;28;83199;-69
2021/07/06 15:09:29;;;;;;;76.88;27.20;;;27.30;51.90;;;;;;6179306;28;83120;-68
2021/07/06 15:12:30;;;;;;;62.08;23.05;;;27.30;52.60;;;;;;6178772;28;83180;-68
2021/07/06 15:15:30;;;;;;;40.13;16.13;;;27.30;51.90;;;;;;6169838;28;83422;-68
2021/07/06 15:18:31;;;;;;;35.20;14.07;;;27.40;51.20;;;;;;6168112;28;82968;-67
2021/07/06 15:21:31;;;;;;;55.03;18.38;;;27.40;51.60;;;;;;6179355;28;83510;-67
2021/07/06 15:24:33;;;;;;;55.25;19.30;;;27.30;51.50;;;;;;6175973;28;83078;-65
2021/07/06 15:27:33;;;;;;;50.40;19.23;;;27.30;52.10;;;;;;6179115;28;83974;-65
2021/07/06 15:30:34;;;;;;;44.30;15.55;;;27.30;52.40;;;;;;6175179;28;83234;-66